Yellowstone Regional Airport
KCOD : now visible

Airfield :











YOU CAN JOIN US ON...

 
LOGIN :

Register | Disclaimer

   EN    FR    IT 

 









Legend :    VFR   Marginal VFR   IFR   Intensive IFR   Very Intensive IFR
Visi :
Ceiling :
>= 8 km
>= 3000ft
5 to 8 km
1000 to 3000 ft
1500m to 5 km
500 to 1000 ft
800 to 1500m
200 to 500 ft
< 800m
< 200 ft
Symbols :   Thunderstorms  Fog  Heavy snow  Heavy precipitations  Wind > 20 kt






- Airport Elevation : 5102 ft


KCOD - Yellowstone Regional

CURRENT METAR :
  • 011556Z AUTO 26018G28KT 10SM SCT095 00/M11 A3004 RMK AO2 PK WND 25028/1556 WSHFT 1523 SLP230 T00001111 FZRANO

EXPIRED METARs :
  • 011548Z AUTO 26009G28KT 220V300 10SM FEW095 M01/M11 A3004 RMK AO2 PK WND 26028/1540 WSHFT 1523 FZRANO
  • 011456Z AUTO 34008KT 310V020 10SM SCT120 M06/M13 A3003 RMK AO2 SLP242 T10611128 51009 FZRANO
  • 011356Z AUTO 29007KT 260V320 10SM CLR M04/M13 A3002 RMK AO2 SLP232 T10391128 FZRANO

TAF KCOD
Valid from the 01 at 12:00 until the 02 at 12:00 UTC


011122Z 0112/0212 25015G25KT P6SM SCT050 BKN100
FM011600 20010KT P6SM BKN100
FM012100 25013G23KT P6SM SCT070 BKN100
KZLC FIR / North America



MET'MAP, your aeronautical weather chart ! - Copyright ORBIFLY December 2007 - Disclaimer

ORBIFLY MET'MAP TEAM :

Programming & Development : Alexandra Zaïnal
Original concept : Baudouin d'Aumeries
Technical & hardware support : Manuel Goepfert
Assistance : Marc-Olivier Méhu




SOURCES & CREDITS :

   NOAA       Earth
Advisory